Time;durP1;ratioP1;P1;durP2;ratioP2;P2;SDS_P1;SDS_P2;PMS_P1;PMS_P2;Temp;Humidity;BMP_temperature;BMP_pressure;BME280_temperature;BME280_humidity;BME280_pressure;Samples;Min_cycle;Max_cycle;Signal;HPM_P1;HPM_P2
2023/04/06 00:01:35;;;;;;;2.78;2.08;;;;;;;2.87;58.70;97783.28;5036339;28;20523;-71
2023/04/06 00:04:03;;;;;;;2.33;1.75;;;;;;;2.88;58.83;97777.03;5037679;28;20045;-71
2023/04/06 00:06:31;;;;;;;2.85;2.08;;;;;;;2.82;59.07;97777.59;5038703;28;20512;-71
2023/04/06 00:08:59;;;;;;;2.55;2.35;;;;;;;2.80;58.93;97775.09;5039096;28;20098;-71
2023/04/06 00:11:27;;;;;;;2.13;1.83;;;;;;;2.84;59.03;97778.28;5040774;28;20937;-71
2023/04/06 00:13:54;;;;;;;2.88;2.00;;;;;;;2.86;58.74;97773.69;5038087;28;20046;-71
2023/04/06 00:16:23;;;;;;;2.05;1.80;;;;;;;2.92;58.82;97778.41;5039024;28;20094;-71
2023/04/06 00:18:51;;;;;;;3.10;2.15;;;;;;;2.94;58.30;97776.44;5040532;28;20041;-71
2023/04/06 00:21:19;;;;;;;2.70;2.08;;;;;;;2.97;58.20;97776.19;5040343;28;20458;-71
2023/04/06 00:23:46;;;;;;;2.63;2.35;;;;;;;2.88;58.41;97774.41;5037778;28;20099;-71
2023/04/06 00:26:14;;;;;;;3.53;2.65;;;;;;;2.73;58.79;97779.25;5038907;28;20041;-70
2023/04/06 00:28:45;;;;;;;2.75;2.22;;;;;;;2.84;58.22;97773.84;5040807;28;20037;-71
2023/04/06 00:31:13;;;;;;;1.90;1.50;;;;;;;2.85;58.23;97775.50;5037915;28;20041;-72
2023/04/06 00:33:42;;;;;;;3.13;2.30;;;;;;;2.95;57.97;97775.47;5038780;28;20099;-71
2023/04/06 00:36:09;;;;;;;2.72;2.45;;;;;;;2.85;58.59;97772.03;5039422;28;20037;-71
2023/04/06 00:38:37;;;;;;;2.75;2.03;;;;;;;2.79;58.82;97764.72;5038537;28;20171;-71
2023/04/06 00:41:05;;;;;;;3.55;2.40;;;;;;;2.80;58.99;97769.00;5038061;28;20064;-71
2023/04/06 00:43:32;;;;;;;3.67;2.45;;;;;;;2.79;58.55;97770.81;5037484;28;20068;-71
2023/04/06 00:46:00;;;;;;;2.80;2.17;;;;;;;2.80;58.65;97769.81;5037513;28;20075;-71
2023/04/06 00:48:27;;;;;;;2.70;2.30;;;;;;;2.74;58.51;97764.28;5039791;28;20064;-71
2023/04/06 00:50:56;;;;;;;2.90;2.70;;;;;;;2.82;57.96;97764.41;5039188;28;20421;-70
2023/04/06 00:53:24;;;;;;;3.03;2.40;;;;;;;2.80;58.21;97772.44;5038931;28;20059;-71
2023/04/06 00:55:52;;;;;;;2.78;2.10;;;;;;;2.86;58.19;97760.53;5037869;28;20047;-71
2023/04/06 00:58:21;;;;;;;2.50;2.30;;;;;;;2.88;57.82;97771.75;5037705;28;20077;-71
2023/04/06 01:00:55;;;;;;;3.85;2.10;;;;;;;2.87;58.18;97770.94;5038496;28;20056;-71
2023/04/06 01:03:23;;;;;;;3.03;2.30;;;;;;;2.86;58.25;97768.44;5036827;28;20041;-71
2023/04/06 01:05:55;;;;;;;5.35;2.90;;;;;;;3.01;57.96;97768.81;5037184;28;20041;-72
2023/04/06 01:08:27;;;;;;;3.00;2.40;;;;;;;3.01;57.80;97768.81;5039454;28;20132;-71
2023/04/06 01:11:08;;;;;;;2.75;2.33;;;;;;;2.91;58.70;97766.19;5039583;28;20055;-70
2023/04/06 01:13:37;;;;;;;2.63;1.92;;;;;;;2.98;58.30;97767.31;5037852;28;20053;-70
2023/04/06 01:16:09;;;;;;;2.83;2.30;;;;;;;2.91;58.40;97764.38;5039389;28;20036;-70
2023/04/06 01:19:01;;;;;;;5.05;2.38;;;;;;;2.83;58.85;97768.72;5028448;28;20531;-70
2023/04/06 01:21:32;;;;;;;2.47;2.08;;;;;;;2.78;59.24;97763.03;5041124;28;20497;-71
2023/04/06 01:24:19;;;;;;;4.78;2.40;;;;;;;2.78;58.96;97763.88;5039235;28;20534;-71
2023/04/06 01:27:13;;;;;;;2.50;2.20;;;;;;;2.83;58.46;97766.06;5030347;28;20066;-71
2023/04/06 01:29:53;;;;;;;2.28;2.08;;;;;;;2.77;58.72;97764.03;5037501;28;20060;-70
2023/04/06 01:32:35;;;;;;;3.45;2.03;;;;;;;2.73;58.82;97762.63;5038246;28;20045;-71
2023/04/06 01:35:02;;;;;;;2.20;1.77;;;;;;;2.76;58.45;97759.72;5040303;28;20096;-71
2023/04/06 01:37:33;;;;;;;3.08;2.30;;;;;;;2.80;58.05;97753.19;5041014;28;20049;-71
2023/04/06 01:40:07;;;;;;;2.08;1.88;;;;;;;2.80;58.60;97756.63;5043220;28;20045;-70
2023/04/06 01:42:48;;;;;;;2.70;2.28;;;;;;;2.82;58.47;97754.69;5042299;28;20087;-71
2023/04/06 01:45:27;;;;;;;2.45;1.88;;;;;;;2.79;59.09;97751.53;5041892;28;20041;-71
2023/04/06 01:48:00;;;;;;;3.10;2.80;;;;;;;2.68;58.96;97757.81;5042430;28;20415;-70
2023/04/06 01:50:29;;;;;;;2.72;2.30;;;;;;;2.68;58.82;97754.34;5038818;28;20135;-70
2023/04/06 01:52:56;;;;;;;2.38;2.08;;;;;;;2.71;58.58;97754.03;5041810;28;20504;-70
2023/04/06 01:55:28;;;;;;;2.60;2.13;;;;;;;2.74;58.50;97754.59;5040049;28;20098;-70
2023/04/06 01:58:21;;;;;;;2.47;1.95;;;;;;;2.70;58.53;97753.19;5041252;28;20068;-70
2023/04/06 02:00:49;;;;;;;3.22;2.15;;;;;;;2.66;58.86;97751.84;5041269;28;20057;-70
2023/04/06 02:03:17;;;;;;;2.53;2.15;;;;;;;2.73;58.34;97749.44;5041020;28;20044;-70
2023/04/06 02:05:46;;;;;;;2.38;2.17;;;;;;;2.66;57.94;97746.56;5041205;28;20121;-70
2023/04/06 02:08:24;;;;;;;2.47;2.22;;;;;;;2.70;58.29;97757.66;5042346;28;20572;-70
2023/04/06 02:10:53;;;;;;;2.30;2.10;;;;;;;2.63;59.03;97753.91;5041433;28;20057;-70
2023/04/06 02:13:29;;;;;;;2.97;2.10;;;;;;;2.59;58.93;97745.47;5040668;28;20154;-70
2023/04/06 02:15:57;;;;;;;3.55;2.38;;;;;;;2.48;58.98;97748.25;5040546;28;20504;-70
2023/04/06 02:18:28;;;;;;;2.47;2.28;;;;;;;2.45;59.85;97748.53;5041419;28;20052;-72
2023/04/06 02:20:56;;;;;;;2.25;2.03;;;;;;;2.45;59.71;97748.53;5041634;28;20072;-70
2023/04/06 02:23:24;;;;;;;3.38;2.25;;;;;;;2.48;59.19;97743.81;5042873;28;20453;-70
2023/04/06 02:25:52;;;;;;;2.67;2.10;;;;;;;2.41;59.46;97745.34;5040705;28;20048;-70
2023/04/06 02:28:20;;;;;;;2.15;1.90;;;;;;;2.37;59.44;97751.03;5042972;28;20056;-71
2023/04/06 02:30:48;;;;;;;2.35;2.03;;;;;;;2.31;59.52;97743.69;5041838;28;20041;-71
2023/04/06 02:33:17;;;;;;;3.78;2.35;;;;;;;2.26;59.56;97735.38;5041121;28;20457;-70
2023/04/06 02:35:47;;;;;;;2.30;2.10;;;;;;;2.32;59.70;97738.28;5041552;28;20451;-71
2023/04/06 02:38:14;;;;;;;2.78;2.00;;;;;;;2.29;59.82;97737.72;5041553;28;20102;-71
2023/04/06 02:40:42;;;;;;;2.08;1.88;;;;;;;2.33;59.98;97736.47;5042282;28;20032;-71
2023/04/06 02:43:20;;;;;;;2.38;2.17;;;;;;;2.34;59.75;97748.69;5038648;28;20057;-71
2023/04/06 02:45:50;;;;;;;2.03;1.83;;;;;;;2.26;59.91;97746.75;5041734;28;20049;-71
2023/04/06 02:48:20;;;;;;;2.55;2.13;;;;;;;2.24;59.78;97743.41;5041010;28;20102;-71
2023/04/06 02:50:48;;;;;;;3.45;2.67;;;;;;;2.20;59.95;97744.66;5041905;28;20406;-70
2023/04/06 02:53:15;;;;;;;2.70;2.50;;;;;;;2.18;60.18;97746.63;5039768;28;20633;-70
2023/04/06 02:55:43;;;;;;;4.43;2.25;;;;;;;2.17;60.76;97752.84;5038699;28;20041;-70
2023/04/06 02:58:11;;;;;;;2.65;2.45;;;;;;;2.21;60.18;97747.16;5041120;28;20057;-71
2023/04/06 03:00:46;;;;;;;2.10;1.95;;;;;;;2.11;61.02;97748.13;5041234;28;20489;-71
2023/04/06 03:03:14;;;;;;;2.67;2.47;;;;;;;2.06;60.98;97748.53;5037916;28;20475;-70
2023/04/06 03:05:45;;;;;;;2.63;1.92;;;;;;;1.93;61.68;97755.88;5040110;28;20049;-71
2023/04/06 03:08:14;;;;;;;2.47;1.80;;;;;;;1.86;62.03;97748.66;5041533;28;20140;-71
2023/04/06 03:10:44;;;;;;;4.22;2.03;;;;;;;1.82;62.45;97743.66;5038891;28;20045;-71
2023/04/06 03:13:13;;;;;;;2.17;1.98;;;;;;;1.88;62.59;97752.81;5039361;28;20402;-71
2023/04/06 03:15:51;;;;;;;2.25;1.70;;;;;;;1.77;62.92;97748.50;5041588;28;20461;-71
2023/04/06 03:18:22;;;;;;;2.15;1.92;;;;;;;1.74;63.20;97759.31;5041724;28;20073;-70
2023/04/06 03:20:53;;;;;;;1.80;1.70;;;;;;;1.74;62.85;97754.03;5039540;28;20065;-70
2023/04/06 03:23:23;;;;;;;1.98;1.77;;;;;;;1.76;63.13;97754.75;5041180;28;20049;-70
2023/04/06 03:25:56;;;;;;;2.60;1.85;;;;;;;1.72;63.07;97755.13;5066562;28;20548;-70
2023/04/06 03:28:24;;;;;;;2.30;2.10;;;;;;;1.73;63.12;97762.91;5050918;28;20049;-71
2023/04/06 03:31:02;;;;;;;3.35;2.33;;;;;;;1.74;63.12;97761.94;5053442;28;20053;-70
2023/04/06 03:33:39;;;;;;;2.58;1.95;;;;;;;1.55;64.09;97759.25;5053070;28;20108;-70
2023/04/06 03:36:09;;;;;;;3.22;2.20;;;;;;;1.60;63.81;97758.84;5044753;28;20037;-70
2023/04/06 03:38:41;;;;;;;2.25;1.80;;;;;;;1.57;64.13;97759.94;5043899;28;20497;-72
2023/04/06 03:41:12;;;;;;;2.58;2.05;;;;;;;1.56;63.88;97762.72;5043003;28;20124;-70
2023/04/06 03:43:43;;;;;;;2.92;2.38;;;;;;;1.55;63.82;97766.31;5044939;28;20041;-71
2023/04/06 03:46:12;;;;;;;2.20;1.90;;;;;;;1.55;63.91;97764.53;5040743;28;20125;-71
2023/04/06 03:48:40;;;;;;;3.40;2.17;;;;;;;1.53;64.17;97773.50;5038247;28;20431;-69
2023/04/06 03:51:07;;;;;;;3.80;2.63;;;;;;;1.53;64.18;97770.88;5039838;28;20135;-70
2023/04/06 03:53:36;;;;;;;3.17;2.08;;;;;;;1.48;64.15;97768.63;5039559;28;20053;-70
2023/04/06 03:56:04;;;;;;;3.90;2.45;;;;;;;1.37;64.35;97759.06;5039818;28;20053;-70
2023/04/06 03:58:32;;;;;;;3.15;2.85;;;;;;;1.35;65.05;97768.06;5038244;28;20045;-70
2023/04/06 04:01:00;;;;;;;2.60;2.40;;;;;;;1.36;64.83;97769.69;5040675;28;20052;-71
2023/04/06 04:03:28;;;;;;;4.22;3.92;;;;;;;1.45;64.44;97768.94;5039582;28;20431;-71
2023/04/06 04:05:56;;;;;;;2.95;2.70;;;;;;;1.51;64.26;97767.53;5038818;28;20057;-71
2023/04/06 04:08:25;;;;;;;2.45;2.25;;;;;;;1.40;64.26;97764.06;5037875;28;20099;-71
2023/04/06 04:10:53;;;;;;;3.33;2.35;;;;;;;1.33;64.55;97769.97;5037187;28;20045;-71
2023/04/06 04:13:20;;;;;;;2.50;2.30;;;;;;;1.39;64.69;97766.81;5039035;28;20515;-71
2023/04/06 04:15:50;;;;;;;3.47;2.47;;;;;;;1.37;64.61;97766.94;5039976;28;20041;-71
2023/04/06 04:18:18;;;;;;;3.15;2.53;;;;;;;1.34;64.65;97775.13;5038032;28;20037;-71
2023/04/06 04:20:47;;;;;;;3.80;2.75;;;;;;;1.39;64.74;97770.28;5039589;28;20091;-71
2023/04/06 04:23:14;;;;;;;2.30;2.10;;;;;;;1.43;64.52;97770.84;5038115;28;20138;-71
2023/04/06 04:25:42;;;;;;;2.70;2.08;;;;;;;1.40;64.30;97766.69;5037993;28;20100;-71
2023/04/06 04:28:09;;;;;;;3.00;2.70;;;;;;;1.41;64.30;97767.50;5039311;28;20045;-71
2023/04/06 04:30:39;;;;;;;2.47;2.22;;;;;;;1.45;64.08;97764.47;5038549;28;20041;-71
2023/04/06 04:33:10;;;;;;;2.38;2.17;;;;;;;1.48;64.81;97774.72;5039067;28;20052;-71
2023/04/06 04:35:38;;;;;;;2.65;2.45;;;;;;;1.43;65.13;97768.22;5036811;28;20053;-71
2023/04/06 04:38:08;;;;;;;3.30;2.70;;;;;;;1.35;65.53;97763.59;5038316;28;20389;-71
2023/04/06 04:40:40;;;;;;;4.35;2.38;;;;;;;1.41;65.31;97768.34;5055884;28;20049;-71
2023/04/06 04:43:09;;;;;;;2.72;2.42;;;;;;;1.24;65.76;97773.41;5036025;28;20073;-71
2023/04/06 04:45:38;;;;;;;5.30;2.72;;;;;;;1.23;65.53;97764.69;5035548;28;20087;-71
2023/04/06 04:48:15;;;;;;;3.83;2.20;;;;;;;1.25;65.69;97768.00;5037164;28;20075;-71
2023/04/06 04:50:51;;;;;;;2.70;2.45;;;;;;;1.25;65.12;97781.13;5039957;28;20037;-71
2023/04/06 04:53:24;;;;;;;2.90;2.58;;;;;;;1.25;65.99;97777.69;5037262;28;20428;-71
2023/04/06 04:55:58;;;;;;;6.18;2.70;;;;;;;1.21;65.58;97777.13;5038477;28;20049;-71
2023/04/06 04:58:27;;;;;;;4.00;2.45;;;;;;;1.35;65.33;97775.94;5038118;28;20121;-71
2023/04/06 05:00:57;;;;;;;4.88;3.40;;;;;;;1.27;65.76;97787.09;5039021;28;20056;-71
2023/04/06 05:03:26;;;;;;;3.92;2.45;;;;;;;1.43;65.58;97782.19;5037108;28;20475;-71
2023/04/06 05:05:59;;;;;;;5.95;3.42;;;;;;;1.52;65.07;97785.81;5039998;28;20045;-71
2023/04/06 05:08:31;;;;;;;2.90;2.47;;;;;;;1.35;66.11;97782.00;5036487;28;20457;-71
2023/04/06 05:11:00;;;;;;;2.72;2.45;;;;;;;1.14;67.09;97783.06;5035804;28;20133;-71
2023/04/06 05:13:31;;;;;;;3.08;2.80;;;;;;;1.11;67.36;97786.75;5034566;28;20033;-71
2023/04/06 05:16:01;;;;;;;5.18;3.05;;;;;;;0.98;68.27;97791.38;5035126;28;20041;-71
2023/04/06 05:18:32;;;;;;;3.78;2.80;;;;;;;1.00;67.65;97787.69;5038459;28;20048;-71
2023/04/06 05:21:01;;;;;;;5.30;2.80;;;;;;;0.95;68.45;97789.84;5055675;28;20052;-71
2023/04/06 05:23:39;;;;;;;4.43;3.05;;;;;;;1.13;67.14;97786.63;5038558;28;20045;-71
2023/04/06 05:26:06;;;;;;;5.60;3.45;;;;;;;1.02;67.70;97785.75;5037151;28;20052;-71
2023/04/06 05:28:34;;;;;;;3.85;3.40;;;;;;;0.89;68.28;97789.53;5037140;28;20052;-71
2023/04/06 05:31:02;;;;;;;5.10;3.40;;;;;;;0.88;68.08;97786.09;5037873;28;20055;-71
2023/04/06 05:33:38;;;;;;;5.20;3.28;;;;;;;0.93;68.07;97789.16;5036723;28;20919;-71
2023/04/06 05:36:10;;;;;;;5.25;3.70;;;;;;;0.84;68.69;97789.91;5037106;28;20116;-70
2023/04/06 05:38:44;;;;;;;4.28;3.88;;;;;;;0.82;68.64;97789.25;5037554;28;20856;-70
2023/04/06 05:41:26;;;;;;;3.00;2.70;;;;;;;0.95;67.79;97789.84;5036525;28;20041;-70
2023/04/06 05:43:55;;;;;;;3.30;2.78;;;;;;;0.91;68.48;97791.09;5037132;28;20053;-71
2023/04/06 05:46:24;;;;;;;3.67;2.90;;;;;;;0.92;68.16;97792.75;5036656;28;20049;-71
2023/04/06 05:48:53;;;;;;;4.57;3.42;;;;;;;0.91;68.81;97792.88;5038888;28;20120;-70
2023/04/06 05:51:26;;;;;;;6.85;3.38;;;;;;;0.89;69.10;97792.16;5037763;28;20110;-71
2023/04/06 05:53:55;;;;;;;4.03;3.28;;;;;;;0.90;68.58;97791.22;5036779;28;20404;-71
2023/04/06 05:56:23;;;;;;;3.80;3.20;;;;;;;1.01;68.61;97791.13;5037327;28;20099;-71
2023/04/06 05:58:51;;;;;;;3.45;2.95;;;;;;;1.03;68.25;97800.56;5038708;28;20094;-71
2023/04/06 06:01:25;;;;;;;3.38;3.05;;;;;;;1.09;68.38;97786.88;5036388;28;20527;-71
2023/04/06 06:03:52;;;;;;;4.07;3.15;;;;;;;1.16;67.75;97797.69;5036692;28;20053;-71
2023/04/06 06:06:20;;;;;;;4.22;3.30;;;;;;;1.12;68.14;97798.94;5036940;28;20508;-71
2023/04/06 06:09:07;;;;;;;3.20;2.60;;;;;;;1.20;67.66;97793.84;5036734;28;20079;-71
2023/04/06 06:11:40;;;;;;;4.20;3.45;;;;;;;1.19;68.23;97793.97;5035850;28;20063;-71
2023/04/06 06:14:10;;;;;;;3.67;3.38;;;;;;;1.39;67.00;97793.09;5027026;28;20053;-71
2023/04/06 06:16:40;;;;;;;4.18;3.10;;;;;;;1.37;67.43;97793.22;5027402;28;20096;-71
2023/04/06 06:19:10;;;;;;;3.42;2.88;;;;;;;1.47;67.15;97798.53;5027612;28;20125;-71
2023/04/06 06:21:37;;;;;;;4.43;3.60;;;;;;;1.51;66.91;97796.47;5034161;28;20040;-71
2023/04/06 06:24:08;;;;;;;3.95;3.53;;;;;;;1.57;66.78;97801.19;5029039;28;20554;-71
2023/04/06 06:26:36;;;;;;;4.45;3.00;;;;;;;1.69;66.34;97800.13;5031888;28;20139;-71
2023/04/06 06:29:05;;;;;;;6.40;3.45;;;;;;;1.84;65.93;97797.00;5029526;28;20057;-71
2023/04/06 06:31:36;;;;;;;4.07;3.15;;;;;;;1.90;65.63;97800.88;5031641;28;20107;-71
2023/04/06 06:34:04;;;;;;;4.30;2.90;;;;;;;1.92;65.00;97803.38;5030443;28;20579;-70
2023/04/06 06:36:35;;;;;;;3.58;3.22;;;;;;;2.06;64.57;97798.56;5035559;28;20050;-70
2023/04/06 06:39:05;;;;;;;4.43;3.58;;;;;;;2.21;64.18;97802.44;5039924;28;20041;-70
2023/04/06 06:41:35;;;;;;;6.80;3.40;;;;;;;2.33;64.33;97800.50;5031779;28;20081;-71
2023/04/06 06:44:05;;;;;;;3.00;2.70;;;;;;;2.36;63.71;97799.41;5032212;28;20132;-70
2023/04/06 06:46:35;;;;;;;3.78;2.92;;;;;;;2.33;63.53;97805.78;5030067;28;20523;-71
2023/04/06 06:49:02;;;;;;;4.05;3.15;;;;;;;2.40;63.54;97798.97;5049807;28;20045;-71
2023/04/06 06:51:30;;;;;;;4.05;2.92;;;;;;;2.50;63.21;97798.97;5032987;28;20073;-71
2023/04/06 06:53:58;;;;;;;6.05;3.92;;;;;;;2.62;62.38;97800.50;5038771;28;20045;-71
2023/04/06 06:56:26;;;;;;;5.28;3.53;;;;;;;2.82;62.14;97801.31;5032045;28;20095;-70
2023/04/06 06:58:55;;;;;;;3.83;3.38;;;;;;;2.87;61.67;97805.19;5041033;28;20076;-71
2023/04/06 07:01:23;;;;;;;4.78;3.53;;;;;;;2.93;60.64;97796.72;5036206;28;20517;-71
2023/04/06 07:03:51;;;;;;;3.85;3.38;;;;;;;3.10;60.54;97802.25;5041894;28;20045;-71
2023/04/06 07:06:18;;;;;;;5.15;3.45;;;;;;;3.18;60.00;97805.81;5047445;28;20041;-71
2023/04/06 07:08:46;;;;;;;5.97;3.10;;;;;;;3.20;58.91;97808.31;5040208;28;20394;-70
2023/04/06 07:11:13;;;;;;;3.55;3.17;;;;;;;3.28;59.21;97803.16;5047354;28;20045;-71
2023/04/06 07:13:41;;;;;;;3.78;3.22;;;;;;;3.42;58.62;97807.13;5035964;28;20041;-71
2023/04/06 07:16:10;;;;;;;4.35;3.90;;;;;;;3.51;58.08;97801.00;5047052;28;20135;-71
2023/04/06 07:18:38;;;;;;;4.60;3.92;;;;;;;3.56;57.85;97798.72;5040090;28;20038;-71
2023/04/06 07:21:05;;;;;;;4.93;3.38;;;;;;;3.65;56.24;97793.41;5039477;28;20423;-71
2023/04/06 07:23:33;;;;;;;5.00;3.22;;;;;;;3.72;55.11;97801.59;5040099;28;20049;-71
2023/04/06 07:26:00;;;;;;;2.53;2.25;;;;;;;3.78;54.63;97803.63;5041095;28;20046;-71
2023/04/06 07:28:28;;;;;;;4.63;2.90;;;;;;;3.89;54.23;97800.78;5047990;28;20052;-71
2023/04/06 07:30:56;;;;;;;4.75;2.60;;;;;;;3.97;54.18;97800.88;5039976;28;20136;-71
2023/04/06 07:33:27;;;;;;;4.65;2.80;;;;;;;4.02;53.95;97798.63;5049298;28;20051;-71
2023/04/06 07:35:54;;;;;;;3.90;2.85;;;;;;;4.07;53.79;97799.00;5039152;28;20404;-71
2023/04/06 07:38:22;;;;;;;3.47;3.17;;;;;;;4.12;54.11;97801.22;5041914;28;20128;-71
2023/04/06 07:40:51;;;;;;;4.10;3.08;;;;;;;4.24;53.85;97797.38;5044334;28;20167;-71
2023/04/06 07:43:19;;;;;;;4.95;2.92;;;;;;;4.20;54.21;97798.66;5033364;28;20148;-72
2023/04/06 07:45:46;;;;;;;3.85;2.95;;;;;;;4.34;54.32;97799.94;5045823;28;20508;-71
2023/04/06 07:48:16;;;;;;;6.22;3.20;;;;;;;4.39;54.45;97795.84;5039726;28;20132;-71
2023/04/06 07:50:46;;;;;;;3.47;2.83;;;;;;;4.45;54.08;97796.25;5046578;28;20076;-71
2023/04/06 07:53:15;;;;;;;4.35;3.72;;;;;;;4.52;53.47;97807.88;5039392;28;20041;-72
2023/04/06 07:55:44;;;;;;;3.83;3.17;;;;;;;4.64;53.51;97804.00;5059112;28;20041;-71
2023/04/06 07:58:11;;;;;;;3.30;2.95;;;;;;;4.64;53.03;97799.56;5042429;28;20095;-71
2023/04/06 08:00:39;;;;;;;3.10;2.45;;;;;;;4.77;53.30;97793.88;5043816;28;20044;-71
2023/04/06 08:03:06;;;;;;;2.53;2.10;;;;;;;4.96;51.84;97796.34;5045555;28;20387;-71
2023/04/06 08:05:34;;;;;;;2.92;2.63;;;;;;;5.09;50.81;97796.75;5041762;28;20151;-71
2023/04/06 08:08:03;;;;;;;2.25;2.05;;;;;;;5.26;50.80;97796.88;5044101;28;20107;-71
2023/04/06 08:10:31;;;;;;;3.70;2.60;;;;;;;5.34;49.24;97792.44;5042059;28;20038;-71
2023/04/06 08:12:58;;;;;;;4.63;1.55;;;;;;;5.33;48.53;97792.59;5043999;28;20045;-71
2023/04/06 08:15:27;;;;;;;2.65;2.00;;;;;;;5.31;49.09;97790.09;5042683;28;20053;-70
2023/04/06 08:17:57;;;;;;;2.13;1.83;;;;;;;5.37;48.93;97791.31;5043900;28;20060;-70
2023/04/06 08:20:24;;;;;;;2.10;1.77;;;;;;;5.44;48.24;97781.75;5042323;28;20461;-71
2023/04/06 08:22:52;;;;;;;3.03;1.73;;;;;;;5.62;47.68;97789.59;5043116;28;20045;-71
2023/04/06 08:25:21;;;;;;;2.78;2.13;;;;;;;5.87;46.71;97792.19;5042565;28;20062;-72
2023/04/06 08:27:49;;;;;;;3.13;2.92;;;;;;;5.97;46.32;97794.75;5037041;28;20467;-70
2023/04/06 08:30:18;;;;;;;2.47;1.55;;;;;;;5.86;45.57;97789.69;5043878;28;20550;-71
2023/04/06 08:32:46;;;;;;;3.05;2.25;;;;;;;5.92;46.04;97783.78;5035695;28;20041;-71
2023/04/06 08:35:14;;;;;;;3.88;2.28;;;;;;;6.08;46.78;97789.16;5045572;28;20064;-71
2023/04/06 08:37:41;;;;;;;2.28;1.42;;;;;;;6.14;44.12;97777.06;5037856;28;20103;-71
2023/04/06 08:40:10;;;;;;;3.17;2.13;;;;;;;6.16;43.59;97801.56;5045688;28;20516;-71
2023/04/06 08:42:41;;;;;;;2.33;1.85;;;;;;;6.03;43.65;97785.31;5040476;28;20044;-71
2023/04/06 08:45:09;;;;;;;2.35;2.15;;;;;;;5.98;44.11;97785.81;5046213;28;20103;-72
2023/04/06 08:47:37;;;;;;;2.22;2.03;;;;;;;6.08;43.92;97773.25;5039230;28;20492;-72
2023/04/06 08:50:06;;;;;;;2.50;2.30;;;;;;;6.06;43.95;97783.19;5046250;28;20045;-71
2023/04/06 08:52:34;;;;;;;2.03;1.83;;;;;;;6.12;43.86;97785.19;5040137;28;20088;-71
2023/04/06 08:55:05;;;;;;;2.05;1.85;;;;;;;6.11;44.15;97775.59;5034211;28;20041;-72
2023/04/06 08:57:32;;;;;;;2.70;1.90;;;;;;;6.12;43.78;97784.38;5045200;28;20048;-71
2023/04/06 09:00:02;;;;;;;3.28;1.75;;;;;;;6.14;43.54;97782.34;5038794;28;20046;-71
2023/04/06 09:02:30;;;;;;;1.95;1.85;;;;;;;6.23;42.79;97774.25;5042404;28;20442;-71
2023/04/06 09:04:58;;;;;;;3.25;2.30;;;;;;;6.40;42.80;97777.78;5042443;28;20447;-71
2023/04/06 09:07:26;;;;;;;2.05;1.92;;;;;;;6.54;42.70;97771.00;5038591;28;20079;-72
2023/04/06 09:09:53;;;;;;;2.42;2.15;;;;;;;6.77;42.68;97774.63;5042878;28;20079;-72
2023/04/06 09:12:26;;;;;;;3.45;3.15;;;;;;;6.90;41.47;97761.72;5041043;28;20519;-71
2023/04/06 09:14:54;;;;;;;2.85;2.40;;;;;;;6.88;40.77;97769.00;5042766;28;20053;-72
2023/04/06 09:17:23;;;;;;;1.98;1.80;;;;;;;6.81;41.04;97765.38;5041880;28;20041;-72
2023/04/06 09:19:51;;;;;;;2.85;2.28;;;;;;;6.81;40.57;97764.53;5042601;28;20051;-71
2023/04/06 09:22:19;;;;;;;2.72;2.28;;;;;;;6.92;41.12;97759.72;5040024;28;20159;-71
2023/04/06 09:24:49;;;;;;;2.28;1.90;;;;;;;6.90;40.14;97768.84;5042848;28;20103;-71
2023/04/06 09:27:17;;;;;;;1.95;1.85;;;;;;;6.97;39.37;97764.50;5034055;28;20108;-73
2023/04/06 09:29:45;;;;;;;2.08;1.88;;;;;;;7.01;38.98;97763.19;5042472;28;20431;-72
2023/04/06 09:32:16;;;;;;;2.15;2.05;;;;;;;6.97;39.61;97761.84;5042232;28;20416;-72
2023/04/06 09:34:48;;;;;;;3.00;2.80;;;;;;;6.96;39.93;97763.69;5031949;28;20466;-73
2023/04/06 09:37:18;;;;;;;1.70;1.60;;;;;;;7.08;39.55;97764.16;5042290;28;20076;-72
2023/04/06 09:39:46;;;;;;;2.25;1.95;;;;;;;7.08;38.98;97758.03;5033485;28;20045;-72
2023/04/06 09:42:24;;;;;;;2.13;2.03;;;;;;;7.44;39.10;97748.66;5042651;28;20471;-72
2023/04/06 09:44:52;;;;;;;1.63;1.52;;;;;;;7.44;38.60;97751.31;5036117;28;20037;-71
2023/04/06 09:47:20;;;;;;;2.58;1.85;;;;;;;7.49;39.59;97754.28;5041831;28;20446;-71
2023/04/06 09:49:51;;;;;;;2.92;2.33;;;;;;;7.51;39.74;97754.09;5042841;28;20123;-71
2023/04/06 09:52:18;;;;;;;2.25;2.05;;;;;;;7.44;39.74;97750.47;5042149;28;20045;-72
2023/04/06 09:54:47;;;;;;;2.50;2.30;;;;;;;7.37;39.58;97745.03;5038982;28;20042;-71
2023/04/06 09:57:22;;;;;;;2.58;2.10;;;;;;;7.37;39.87;97742.38;5044748;28;20278;-72
2023/04/06 09:59:55;;;;;;;1.80;1.70;;;;;;;7.55;39.15;97742.16;5043906;28;20517;-71
2023/04/06 10:02:29;;;;;;;2.83;2.50;;;;;;;7.49;39.07;97733.03;5048384;28;20044;-72
2023/04/06 10:05:03;;;;;;;2.85;2.17;;;;;;;7.72;39.89;97735.75;5046740;28;20050;-71
2023/04/06 10:07:32;;;;;;;2.65;2.45;;;;;;;8.11;37.92;97730.38;5049691;28;20439;-72
2023/04/06 10:10:00;;;;;;;2.38;2.00;;;;;;;8.03;38.37;97743.75;5050637;28;20067;-71
2023/04/06 10:12:27;;;;;;;3.08;2.75;;;;;;;8.06;38.04;97730.09;5044422;28;20041;-71
2023/04/06 10:14:55;;;;;;;1.17;1.08;;;;;;;8.34;37.61;97727.78;5046156;28;20088;-72
2023/04/06 10:17:24;;;;;;;2.38;2.17;;;;;;;8.29;38.25;97727.47;5041697;28;20477;-72
2023/04/06 10:19:55;;;;;;;2.15;1.80;;;;;;;8.41;38.14;97726.88;5046290;28;20120;-71
2023/04/06 10:22:29;;;;;;;3.20;2.10;;;;;;;8.45;38.13;97736.19;5044520;28;20087;-71
2023/04/06 10:24:57;;;;;;;2.92;2.42;;;;;;;8.70;38.00;97736.81;5047616;28;20049;-71
2023/04/06 10:27:31;;;;;;;1.75;1.65;;;;;;;8.80;37.79;97732.09;5044897;28;20044;-71
2023/04/06 10:30:03;;;;;;;2.58;2.15;;;;;;;8.41;37.12;97734.03;5046123;28;20041;-71
2023/04/06 10:32:37;;;;;;;2.10;1.90;;;;;;;8.71;36.89;97737.66;5042977;28;20107;-71
2023/04/06 10:35:08;;;;;;;1.70;1.60;;;;;;;9.34;35.74;97739.03;5039135;28;20107;-71
2023/04/06 10:37:53;;;;;;;1.60;1.50;;;;;;;9.71;34.75;97730.09;5044871;28;20094;-71
2023/04/06 10:40:23;;;;;;;2.55;2.20;;;;;;;9.50;35.35;97725.53;5042290;28;20475;-72
2023/04/06 10:42:50;;;;;;;2.28;1.98;;;;;;;9.63;35.71;97736.38;5042032;28;20050;-72
2023/04/06 10:45:22;;;;;;;6.55;1.58;;;;;;;9.99;34.77;97730.22;5041709;28;20049;-72
2023/04/06 10:47:53;;;;;;;2.30;2.10;;;;;;;10.20;34.63;97723.13;5042025;28;20046;-71
2023/04/06 10:50:21;;;;;;;2.22;2.10;;;;;;;10.40;33.79;97717.16;5041863;28;20404;-72
2023/04/06 10:53:01;;;;;;;2.10;1.90;;;;;;;10.37;34.42;97715.72;5041998;28;20128;-72
2023/04/06 10:55:29;;;;;;;2.20;2.03;;;;;;;10.54;33.96;97714.44;5035533;28;20041;-72
2023/04/06 10:57:57;;;;;;;2.08;1.85;;;;;;;10.80;33.69;97715.66;5041401;28;20041;-72
2023/04/06 11:00:25;;;;;;;2.75;2.45;;;;;;;10.93;34.37;97705.09;5043121;28;20042;-72
2023/04/06 11:03:06;;;;;;;2.40;2.08;;;;;;;11.15;33.82;97712.03;5046345;28;20148;-71
2023/04/06 11:05:33;;;;;;;2.50;2.30;;;;;;;11.08;34.08;97702.34;5040528;28;20041;-71
2023/04/06 11:08:02;;;;;;;1.67;1.58;;;;;;;11.07;33.51;97696.19;5038499;28;20116;-71
2023/04/06 11:10:30;;;;;;;2.38;2.00;;;;;;;10.95;34.10;97703.91;5045152;28;20041;-71
2023/04/06 11:12:58;;;;;;;2.30;2.10;;;;;;;10.81;34.20;97696.78;5045858;28;20042;-72
2023/04/06 11:15:25;;;;;;;2.25;2.03;;;;;;;10.68;35.00;97698.56;5051798;28;20118;-71
2023/04/06 11:17:53;;;;;;;3.03;2.72;;;;;;;10.78;34.08;97696.38;5060021;28;20045;-73
2023/04/06 11:20:20;;;;;;;3.15;2.38;;;;;;;10.64;34.37;97682.91;5043354;28;20121;-70
2023/04/06 11:22:49;;;;;;;2.92;2.10;;;;;;;10.90;33.98;97682.28;5052332;28;20055;-71
2023/04/06 11:25:19;;;;;;;3.80;2.13;;;;;;;11.34;33.78;97675.78;5041352;28;20283;-71
2023/04/06 11:27:47;;;;;;;2.13;1.90;;;;;;;11.55;32.70;97680.19;5044822;28;20046;-71
2023/04/06 11:30:15;;;;;;;2.20;2.00;;;;;;;11.58;33.11;97674.47;5049144;28;20040;-71
2023/04/06 11:32:44;;;;;;;1.38;1.25;;;;;;;11.89;32.04;97671.31;5039058;28;20037;-70
2023/04/06 11:35:15;;;;;;;1.95;1.70;;;;;;;12.20;31.48;97676.97;5037732;28;20108;-71
2023/04/06 11:37:44;;;;;;;2.63;1.92;;;;;;;12.08;31.30;97667.88;5030336;28;20053;-70
2023/04/06 11:40:11;;;;;;;2.40;2.20;;;;;;;11.77;31.33;97671.06;5038513;28;20037;-71
2023/04/06 11:42:40;;;;;;;2.20;1.60;;;;;;;11.79;32.06;97682.41;5044054;28;20378;-70
2023/04/06 11:45:09;;;;;;;3.58;1.55;;;;;;;12.00;31.13;97668.91;5039565;28;20102;-71
2023/04/06 11:47:37;;;;;;;1.92;1.70;;;;;;;12.13;31.82;97671.63;5041310;28;20053;-71
2023/04/06 11:50:09;;;;;;;2.67;1.90;;;;;;;12.36;30.68;97668.53;5046468;28;20139;-71
2023/04/06 11:52:37;;;;;;;2.40;2.20;;;;;;;12.44;31.08;97662.19;5041115;28;20045;-71
2023/04/06 11:55:12;;;;;;;2.40;2.20;;;;;;;12.54;31.27;97651.91;5040570;28;20509;-71